sensor_id;sensor_type;location;lat;lon;timestamp;P1;durP1;ratioP1;P2;durP2;ratioP2
47844;SDS011;33605;48.822;8.796;2023-07-20T00:02:00;6.13;;;2.90;;
47844;SDS011;33605;48.822;8.796;2023-07-20T00:04:27;2.90;;;2.43;;
47844;SDS011;33605;48.822;8.796;2023-07-20T00:06:53;4.00;;;2.60;;
47844;SDS011;33605;48.822;8.796;2023-07-20T00:09:19;2.80;;;2.40;;
47844;SDS011;33605;48.822;8.796;2023-07-20T00:12:01;5.70;;;2.50;;
47844;SDS011;33605;48.822;8.796;2023-07-20T00:14:27;4.33;;;2.30;;
47844;SDS011;33605;48.822;8.796;2023-07-20T00:16:54;2.80;;;2.30;;
47844;SDS011;33605;48.822;8.796;2023-07-20T00:19:24;3.60;;;2.60;;
47844;SDS011;33605;48.822;8.796;2023-07-20T00:21:50;2.30;;;2.10;;
47844;SDS011;33605;48.822;8.796;2023-07-20T00:24:16;2.70;;;2.30;;
47844;SDS011;33605;48.822;8.796;2023-07-20T00:26:43;5.33;;;3.27;;
47844;SDS011;33605;48.822;8.796;2023-07-20T00:29:09;5.77;;;3.07;;
47844;SDS011;33605;48.822;8.796;2023-07-20T00:31:35;4.40;;;2.77;;
47844;SDS011;33605;48.822;8.796;2023-07-20T00:34:02;4.60;;;2.80;;
47844;SDS011;33605;48.822;8.796;2023-07-20T00:36:46;4.53;;;2.77;;
47844;SDS011;33605;48.822;8.796;2023-07-20T00:39:14;2.93;;;2.63;;
47844;SDS011;33605;48.822;8.796;2023-07-20T00:41:40;2.33;;;2.13;;
47844;SDS011;33605;48.822;8.796;2023-07-20T00:44:06;3.13;;;2.57;;
47844;SDS011;33605;48.822;8.796;2023-07-20T00:46:32;2.63;;;2.40;;
47844;SDS011;33605;48.822;8.796;2023-07-20T00:48:58;2.97;;;2.70;;
47844;SDS011;33605;48.822;8.796;2023-07-20T00:51:25;3.63;;;2.60;;
47844;SDS011;33605;48.822;8.796;2023-07-20T00:53:51;7.77;;;2.50;;
47844;SDS011;33605;48.822;8.796;2023-07-20T00:56:17;4.30;;;2.87;;
47844;SDS011;33605;48.822;8.796;2023-07-20T01:01:47;6.10;;;2.53;;
47844;SDS011;33605;48.822;8.796;2023-07-20T01:04:13;3.67;;;2.60;;
47844;SDS011;33605;48.822;8.796;2023-07-20T01:09:16;5.53;;;2.93;;
47844;SDS011;33605;48.822;8.796;2023-07-20T01:11:47;3.13;;;2.83;;
47844;SDS011;33605;48.822;8.796;2023-07-20T01:14:15;3.67;;;2.83;;
47844;SDS011;33605;48.822;8.796;2023-07-20T01:16:41;4.40;;;2.83;;
47844;SDS011;33605;48.822;8.796;2023-07-20T01:19:07;2.63;;;2.43;;
47844;SDS011;33605;48.822;8.796;2023-07-20T01:21:35;6.10;;;2.60;;
47844;SDS011;33605;48.822;8.796;2023-07-20T01:24:27;4.73;;;3.00;;
47844;SDS011;33605;48.822;8.796;2023-07-20T01:27:06;4.47;;;2.50;;
47844;SDS011;33605;48.822;8.796;2023-07-20T01:29:54;3.50;;;2.70;;
47844;SDS011;33605;48.822;8.796;2023-07-20T01:32:21;3.43;;;2.80;;
47844;SDS011;33605;48.822;8.796;2023-07-20T01:34:49;4.40;;;2.50;;
47844;SDS011;33605;48.822;8.796;2023-07-20T01:37:16;4.20;;;2.77;;
47844;SDS011;33605;48.822;8.796;2023-07-20T01:39:45;3.60;;;2.33;;
47844;SDS011;33605;48.822;8.796;2023-07-20T01:42:11;6.67;;;2.27;;
47844;SDS011;33605;48.822;8.796;2023-07-20T01:44:37;3.13;;;2.73;;
47844;SDS011;33605;48.822;8.796;2023-07-20T01:47:03;3.37;;;2.50;;
47844;SDS011;33605;48.822;8.796;2023-07-20T01:49:29;6.20;;;2.50;;
47844;SDS011;33605;48.822;8.796;2023-07-20T01:51:55;3.00;;;2.27;;
47844;SDS011;33605;48.822;8.796;2023-07-20T01:54:21;2.97;;;2.67;;
47844;SDS011;33605;48.822;8.796;2023-07-20T01:56:47;2.50;;;2.30;;
47844;SDS011;33605;48.822;8.796;2023-07-20T01:59:13;3.47;;;2.63;;
47844;SDS011;33605;48.822;8.796;2023-07-20T02:01:39;5.20;;;2.90;;
47844;SDS011;33605;48.822;8.796;2023-07-20T02:04:04;2.60;;;2.13;;
47844;SDS011;33605;48.822;8.796;2023-07-20T02:06:31;2.80;;;2.50;;
47844;SDS011;33605;48.822;8.796;2023-07-20T02:08:57;2.80;;;2.33;;
47844;SDS011;33605;48.822;8.796;2023-07-20T02:11:23;2.60;;;2.40;;
47844;SDS011;33605;48.822;8.796;2023-07-20T02:13:49;1.93;;;1.73;;
47844;SDS011;33605;48.822;8.796;2023-07-20T02:16:15;2.83;;;2.43;;
47844;SDS011;33605;48.822;8.796;2023-07-20T02:18:41;3.70;;;2.80;;
47844;SDS011;33605;48.822;8.796;2023-07-20T02:21:07;2.73;;;2.07;;
47844;SDS011;33605;48.822;8.796;2023-07-20T02:23:33;3.83;;;2.10;;
47844;SDS011;33605;48.822;8.796;2023-07-20T02:25:59;3.87;;;2.53;;
47844;SDS011;33605;48.822;8.796;2023-07-20T02:28:25;3.57;;;2.80;;
47844;SDS011;33605;48.822;8.796;2023-07-20T02:30:51;4.03;;;2.77;;
47844;SDS011;33605;48.822;8.796;2023-07-20T02:33:18;3.27;;;2.53;;
47844;SDS011;33605;48.822;8.796;2023-07-20T02:35:45;2.77;;;2.30;;
47844;SDS011;33605;48.822;8.796;2023-07-20T02:38:11;3.10;;;2.13;;
47844;SDS011;33605;48.822;8.796;2023-07-20T02:40:37;3.53;;;2.50;;
47844;SDS011;33605;48.822;8.796;2023-07-20T02:43:03;5.70;;;2.60;;
47844;SDS011;33605;48.822;8.796;2023-07-20T02:45:29;3.40;;;2.60;;
47844;SDS011;33605;48.822;8.796;2023-07-20T02:47:55;3.03;;;2.57;;
47844;SDS011;33605;48.822;8.796;2023-07-20T02:50:21;2.67;;;2.47;;
47844;SDS011;33605;48.822;8.796;2023-07-20T02:52:47;3.17;;;2.87;;
47844;SDS011;33605;48.822;8.796;2023-07-20T02:55:13;1.90;;;1.80;;
47844;SDS011;33605;48.822;8.796;2023-07-20T02:57:40;2.73;;;2.47;;
47844;SDS011;33605;48.822;8.796;2023-07-20T03:00:06;2.30;;;2.10;;
47844;SDS011;33605;48.822;8.796;2023-07-20T03:02:32;2.93;;;2.57;;
47844;SDS011;33605;48.822;8.796;2023-07-20T03:04:58;3.27;;;2.63;;
47844;SDS011;33605;48.822;8.796;2023-07-20T03:07:26;4.43;;;2.43;;
47844;SDS011;33605;48.822;8.796;2023-07-20T03:09:52;2.90;;;2.53;;
47844;SDS011;33605;48.822;8.796;2023-07-20T03:12:19;4.13;;;2.67;;
47844;SDS011;33605;48.822;8.796;2023-07-20T03:14:45;3.30;;;2.23;;
47844;SDS011;33605;48.822;8.796;2023-07-20T03:17:11;2.70;;;2.43;;
47844;SDS011;33605;48.822;8.796;2023-07-20T03:19:37;2.60;;;2.40;;
47844;SDS011;33605;48.822;8.796;2023-07-20T03:22:03;3.50;;;2.50;;
47844;SDS011;33605;48.822;8.796;2023-07-20T03:24:29;4.20;;;2.30;;
47844;SDS011;33605;48.822;8.796;2023-07-20T03:26:55;3.40;;;2.50;;
47844;SDS011;33605;48.822;8.796;2023-07-20T03:29:21;3.90;;;2.10;;
47844;SDS011;33605;48.822;8.796;2023-07-20T03:31:47;2.70;;;2.50;;
47844;SDS011;33605;48.822;8.796;2023-07-20T03:34:13;3.67;;;2.63;;
47844;SDS011;33605;48.822;8.796;2023-07-20T03:36:39;3.17;;;2.30;;
47844;SDS011;33605;48.822;8.796;2023-07-20T03:39:05;4.93;;;2.67;;
47844;SDS011;33605;48.822;8.796;2023-07-20T03:41:31;3.60;;;2.50;;
47844;SDS011;33605;48.822;8.796;2023-07-20T03:43:57;2.73;;;2.40;;
47844;SDS011;33605;48.822;8.796;2023-07-20T03:46:23;3.10;;;2.77;;
47844;SDS011;33605;48.822;8.796;2023-07-20T03:48:49;4.17;;;2.60;;
47844;SDS011;33605;48.822;8.796;2023-07-20T03:51:15;4.10;;;2.60;;
47844;SDS011;33605;48.822;8.796;2023-07-20T03:53:41;3.70;;;2.63;;
47844;SDS011;33605;48.822;8.796;2023-07-20T03:56:07;3.13;;;2.47;;
47844;SDS011;33605;48.822;8.796;2023-07-20T03:58:33;3.67;;;2.57;;
47844;SDS011;33605;48.822;8.796;2023-07-20T04:00:59;2.67;;;2.40;;
47844;SDS011;33605;48.822;8.796;2023-07-20T04:03:25;3.20;;;2.90;;
47844;SDS011;33605;48.822;8.796;2023-07-20T04:05:53;2.80;;;2.40;;
47844;SDS011;33605;48.822;8.796;2023-07-20T04:08:20;2.87;;;2.47;;
47844;SDS011;33605;48.822;8.796;2023-07-20T04:10:46;3.13;;;2.50;;
47844;SDS011;33605;48.822;8.796;2023-07-20T04:13:12;3.50;;;2.40;;
47844;SDS011;33605;48.822;8.796;2023-07-20T04:15:38;5.00;;;2.50;;
47844;SDS011;33605;48.822;8.796;2023-07-20T04:18:04;3.00;;;2.50;;
47844;SDS011;33605;48.822;8.796;2023-07-20T04:20:30;5.80;;;2.90;;
47844;SDS011;33605;48.822;8.796;2023-07-20T04:22:55;2.53;;;2.33;;
47844;SDS011;33605;48.822;8.796;2023-07-20T04:25:21;5.90;;;2.83;;
47844;SDS011;33605;48.822;8.796;2023-07-20T04:27:47;5.13;;;2.53;;
47844;SDS011;33605;48.822;8.796;2023-07-20T04:30:13;2.53;;;2.30;;
47844;SDS011;33605;48.822;8.796;2023-07-20T04:32:40;2.93;;;2.50;;
47844;SDS011;33605;48.822;8.796;2023-07-20T04:35:09;2.50;;;2.30;;
47844;SDS011;33605;48.822;8.796;2023-07-20T04:37:35;2.50;;;2.30;;
47844;SDS011;33605;48.822;8.796;2023-07-20T04:40:01;2.40;;;2.20;;
47844;SDS011;33605;48.822;8.796;2023-07-20T04:42:28;2.63;;;2.40;;
47844;SDS011;33605;48.822;8.796;2023-07-20T04:44:54;2.57;;;2.33;;
47844;SDS011;33605;48.822;8.796;2023-07-20T04:47:20;2.67;;;2.43;;
47844;SDS011;33605;48.822;8.796;2023-07-20T04:49:46;3.53;;;2.60;;
47844;SDS011;33605;48.822;8.796;2023-07-20T04:54:46;3.10;;;2.37;;
47844;SDS011;33605;48.822;8.796;2023-07-20T04:57:12;2.80;;;2.50;;
47844;SDS011;33605;48.822;8.796;2023-07-20T04:59:38;5.30;;;3.73;;
47844;SDS011;33605;48.822;8.796;2023-07-20T05:02:04;3.37;;;2.90;;
47844;SDS011;33605;48.822;8.796;2023-07-20T05:04:30;4.07;;;2.80;;
47844;SDS011;33605;48.822;8.796;2023-07-20T05:06:56;3.70;;;2.30;;
47844;SDS011;33605;48.822;8.796;2023-07-20T05:09:22;4.40;;;2.60;;
47844;SDS011;33605;48.822;8.796;2023-07-20T05:11:48;4.03;;;2.87;;
47844;SDS011;33605;48.822;8.796;2023-07-20T05:14:14;3.30;;;2.37;;
47844;SDS011;33605;48.822;8.796;2023-07-20T05:16:40;3.77;;;2.73;;
47844;SDS011;33605;48.822;8.796;2023-07-20T05:19:06;2.60;;;2.40;;
47844;SDS011;33605;48.822;8.796;2023-07-20T05:21:32;2.80;;;2.50;;
47844;SDS011;33605;48.822;8.796;2023-07-20T05:23:58;4.50;;;3.23;;
47844;SDS011;33605;48.822;8.796;2023-07-20T05:26:24;3.40;;;2.43;;
47844;SDS011;33605;48.822;8.796;2023-07-20T05:28:50;3.73;;;3.13;;
47844;SDS011;33605;48.822;8.796;2023-07-20T05:31:16;2.57;;;2.30;;
47844;SDS011;33605;48.822;8.796;2023-07-20T05:33:42;3.93;;;2.30;;
47844;SDS011;33605;48.822;8.796;2023-07-20T05:36:08;4.80;;;3.40;;
47844;SDS011;33605;48.822;8.796;2023-07-20T05:38:34;5.97;;;2.50;;
47844;SDS011;33605;48.822;8.796;2023-07-20T05:41:00;6.17;;;3.27;;
47844;SDS011;33605;48.822;8.796;2023-07-20T05:43:27;3.10;;;2.90;;
47844;SDS011;33605;48.822;8.796;2023-07-20T05:45:53;4.40;;;2.40;;
47844;SDS011;33605;48.822;8.796;2023-07-20T05:48:19;2.90;;;2.27;;
47844;SDS011;33605;48.822;8.796;2023-07-20T05:50:45;2.60;;;2.20;;
47844;SDS011;33605;48.822;8.796;2023-07-20T05:53:10;7.10;;;2.57;;
47844;SDS011;33605;48.822;8.796;2023-07-20T05:55:36;3.90;;;2.80;;
47844;SDS011;33605;48.822;8.796;2023-07-20T05:58:05;3.47;;;2.30;;
47844;SDS011;33605;48.822;8.796;2023-07-20T06:00:31;4.33;;;2.60;;
47844;SDS011;33605;48.822;8.796;2023-07-20T06:02:57;2.93;;;2.50;;
47844;SDS011;33605;48.822;8.796;2023-07-20T06:05:23;3.37;;;2.33;;
47844;SDS011;33605;48.822;8.796;2023-07-20T06:07:49;2.60;;;2.33;;
47844;SDS011;33605;48.822;8.796;2023-07-20T06:10:15;2.30;;;2.10;;
47844;SDS011;33605;48.822;8.796;2023-07-20T06:12:41;5.13;;;2.87;;
47844;SDS011;33605;48.822;8.796;2023-07-20T06:15:23;3.27;;;2.30;;
47844;SDS011;33605;48.822;8.796;2023-07-20T06:17:50;3.13;;;2.43;;
47844;SDS011;33605;48.822;8.796;2023-07-20T06:20:16;5.97;;;2.57;;
47844;SDS011;33605;48.822;8.796;2023-07-20T06:22:44;2.93;;;2.40;;
47844;SDS011;33605;48.822;8.796;2023-07-20T06:25:10;4.37;;;2.57;;
47844;SDS011;33605;48.822;8.796;2023-07-20T06:27:36;3.77;;;2.73;;
47844;SDS011;33605;48.822;8.796;2023-07-20T06:30:02;5.23;;;3.00;;
47844;SDS011;33605;48.822;8.796;2023-07-20T06:32:28;3.67;;;3.20;;
47844;SDS011;33605;48.822;8.796;2023-07-20T06:34:54;7.40;;;2.77;;
47844;SDS011;33605;48.822;8.796;2023-07-20T06:37:20;3.93;;;2.57;;
47844;SDS011;33605;48.822;8.796;2023-07-20T06:39:46;7.60;;;2.87;;
47844;SDS011;33605;48.822;8.796;2023-07-20T06:42:12;4.90;;;2.67;;
47844;SDS011;33605;48.822;8.796;2023-07-20T06:44:39;3.40;;;2.60;;
47844;SDS011;33605;48.822;8.796;2023-07-20T06:47:05;3.20;;;2.80;;
47844;SDS011;33605;48.822;8.796;2023-07-20T06:49:31;4.27;;;3.30;;
47844;SDS011;33605;48.822;8.796;2023-07-20T06:51:57;3.20;;;2.73;;
47844;SDS011;33605;48.822;8.796;2023-07-20T06:54:23;4.07;;;3.00;;
47844;SDS011;33605;48.822;8.796;2023-07-20T06:56:49;4.30;;;2.73;;
47844;SDS011;33605;48.822;8.796;2023-07-20T06:59:15;3.03;;;2.73;;
47844;SDS011;33605;48.822;8.796;2023-07-20T07:01:41;4.60;;;2.50;;
47844;SDS011;33605;48.822;8.796;2023-07-20T07:04:07;6.73;;;2.60;;
47844;SDS011;33605;48.822;8.796;2023-07-20T07:06:33;4.57;;;2.50;;
47844;SDS011;33605;48.822;8.796;2023-07-20T07:09:00;2.60;;;2.30;;
47844;SDS011;33605;48.822;8.796;2023-07-20T07:11:26;2.93;;;2.73;;
47844;SDS011;33605;48.822;8.796;2023-07-20T07:13:52;5.03;;;2.80;;
47844;SDS011;33605;48.822;8.796;2023-07-20T07:16:19;3.27;;;2.97;;
47844;SDS011;33605;48.822;8.796;2023-07-20T07:18:45;3.60;;;2.90;;
47844;SDS011;33605;48.822;8.796;2023-07-20T07:21:11;2.83;;;2.50;;
47844;SDS011;33605;48.822;8.796;2023-07-20T07:23:38;3.20;;;2.90;;
47844;SDS011;33605;48.822;8.796;2023-07-20T07:26:04;4.87;;;2.53;;
47844;SDS011;33605;48.822;8.796;2023-07-20T07:28:30;4.80;;;2.60;;
47844;SDS011;33605;48.822;8.796;2023-07-20T07:30:57;3.70;;;2.70;;
47844;SDS011;33605;48.822;8.796;2023-07-20T07:33:23;4.90;;;3.00;;
47844;SDS011;33605;48.822;8.796;2023-07-20T07:35:49;3.90;;;3.00;;
47844;SDS011;33605;48.822;8.796;2023-07-20T07:38:16;4.13;;;2.53;;
47844;SDS011;33605;48.822;8.796;2023-07-20T07:40:42;6.97;;;2.63;;
47844;SDS011;33605;48.822;8.796;2023-07-20T07:43:08;4.07;;;3.00;;
47844;SDS011;33605;48.822;8.796;2023-07-20T07:45:34;3.27;;;2.87;;
47844;SDS011;33605;48.822;8.796;2023-07-20T07:48:04;7.47;;;2.60;;
47844;SDS011;33605;48.822;8.796;2023-07-20T07:50:30;3.53;;;2.70;;
47844;SDS011;33605;48.822;8.796;2023-07-20T07:52:56;3.77;;;2.50;;
47844;SDS011;33605;48.822;8.796;2023-07-20T07:55:23;3.20;;;2.70;;
47844;SDS011;33605;48.822;8.796;2023-07-20T07:57:51;3.00;;;2.70;;
47844;SDS011;33605;48.822;8.796;2023-07-20T08:00:17;3.33;;;2.53;;
47844;SDS011;33605;48.822;8.796;2023-07-20T08:02:44;3.83;;;2.83;;
47844;SDS011;33605;48.822;8.796;2023-07-20T08:05:11;2.50;;;2.20;;
47844;SDS011;33605;48.822;8.796;2023-07-20T08:07:37;3.17;;;2.37;;
47844;SDS011;33605;48.822;8.796;2023-07-20T08:10:03;3.00;;;2.53;;
47844;SDS011;33605;48.822;8.796;2023-07-20T08:12:30;3.83;;;3.03;;
47844;SDS011;33605;48.822;8.796;2023-07-20T08:14:56;2.83;;;2.50;;
47844;SDS011;33605;48.822;8.796;2023-07-20T08:17:22;2.37;;;2.03;;
47844;SDS011;33605;48.822;8.796;2023-07-20T08:19:48;4.70;;;2.50;;
47844;SDS011;33605;48.822;8.796;2023-07-20T08:22:14;7.30;;;3.20;;
47844;SDS011;33605;48.822;8.796;2023-07-20T08:24:41;2.87;;;2.57;;
47844;SDS011;33605;48.822;8.796;2023-07-20T08:27:07;5.10;;;2.70;;
47844;SDS011;33605;48.822;8.796;2023-07-20T08:29:33;5.80;;;2.40;;
47844;SDS011;33605;48.822;8.796;2023-07-20T08:31:59;3.67;;;2.70;;
47844;SDS011;33605;48.822;8.796;2023-07-20T08:34:25;2.90;;;2.60;;
47844;SDS011;33605;48.822;8.796;2023-07-20T08:36:51;2.67;;;2.30;;
47844;SDS011;33605;48.822;8.796;2023-07-20T08:39:17;3.73;;;2.37;;
47844;SDS011;33605;48.822;8.796;2023-07-20T08:41:43;2.43;;;2.23;;
47844;SDS011;33605;48.822;8.796;2023-07-20T08:44:10;5.80;;;2.60;;
47844;SDS011;33605;48.822;8.796;2023-07-20T08:46:39;3.17;;;2.50;;
47844;SDS011;33605;48.822;8.796;2023-07-20T08:49:06;7.00;;;2.50;;
47844;SDS011;33605;48.822;8.796;2023-07-20T08:51:32;4.30;;;2.37;;
47844;SDS011;33605;48.822;8.796;2023-07-20T08:53:59;5.40;;;2.23;;
47844;SDS011;33605;48.822;8.796;2023-07-20T08:56:25;3.13;;;2.53;;
47844;SDS011;33605;48.822;8.796;2023-07-20T08:58:52;2.83;;;2.33;;
47844;SDS011;33605;48.822;8.796;2023-07-20T09:01:18;3.87;;;2.37;;
47844;SDS011;33605;48.822;8.796;2023-07-20T09:03:44;2.77;;;2.10;;
47844;SDS011;33605;48.822;8.796;2023-07-20T09:06:11;3.40;;;2.30;;
47844;SDS011;33605;48.822;8.796;2023-07-20T09:08:38;2.13;;;1.93;;
47844;SDS011;33605;48.822;8.796;2023-07-20T09:11:04;2.77;;;2.10;;
47844;SDS011;33605;48.822;8.796;2023-07-20T09:13:31;6.03;;;2.17;;
47844;SDS011;33605;48.822;8.796;2023-07-20T09:15:57;2.93;;;1.90;;
47844;SDS011;33605;48.822;8.796;2023-07-20T09:18:28;2.77;;;2.10;;
47844;SDS011;33605;48.822;8.796;2023-07-20T09:21:01;2.23;;;2.00;;
47844;SDS011;33605;48.822;8.796;2023-07-20T09:23:31;4.10;;;2.03;;
47844;SDS011;33605;48.822;8.796;2023-07-20T09:25:57;3.00;;;1.90;;
47844;SDS011;33605;48.822;8.796;2023-07-20T09:28:23;2.83;;;1.90;;
47844;SDS011;33605;48.822;8.796;2023-07-20T09:30:49;2.13;;;1.70;;
47844;SDS011;33605;48.822;8.796;2023-07-20T09:33:18;2.23;;;2.00;;
47844;SDS011;33605;48.822;8.796;2023-07-20T09:35:45;1.93;;;1.80;;
47844;SDS011;33605;48.822;8.796;2023-07-20T09:38:11;6.30;;;1.70;;
47844;SDS011;33605;48.822;8.796;2023-07-20T09:40:37;3.07;;;2.23;;
47844;SDS011;33605;48.822;8.796;2023-07-20T09:43:07;2.00;;;1.60;;
47844;SDS011;33605;48.822;8.796;2023-07-20T09:45:33;2.30;;;2.10;;
47844;SDS011;33605;48.822;8.796;2023-07-20T09:48:03;2.20;;;1.87;;
47844;SDS011;33605;48.822;8.796;2023-07-20T09:50:31;1.73;;;1.63;;
47844;SDS011;33605;48.822;8.796;2023-07-20T09:52:57;3.30;;;1.87;;
47844;SDS011;33605;48.822;8.796;2023-07-20T09:55:25;2.60;;;1.73;;
47844;SDS011;33605;48.822;8.796;2023-07-20T09:57:52;2.23;;;1.97;;
47844;SDS011;33605;48.822;8.796;2023-07-20T10:00:18;8.60;;;2.27;;
47844;SDS011;33605;48.822;8.796;2023-07-20T10:02:45;1.97;;;1.63;;
47844;SDS011;33605;48.822;8.796;2023-07-20T10:05:15;2.03;;;1.47;;
47844;SDS011;33605;48.822;8.796;2023-07-20T10:07:46;1.83;;;1.63;;
47844;SDS011;33605;48.822;8.796;2023-07-20T10:10:13;2.57;;;1.57;;
47844;SDS011;33605;48.822;8.796;2023-07-20T10:12:39;3.83;;;1.90;;
47844;SDS011;33605;48.822;8.796;2023-07-20T10:17:33;2.10;;;1.90;;
47844;SDS011;33605;48.822;8.796;2023-07-20T10:19:59;1.70;;;1.60;;
47844;SDS011;33605;48.822;8.796;2023-07-20T10:22:27;3.70;;;2.00;;
47844;SDS011;33605;48.822;8.796;2023-07-20T10:24:55;1.73;;;1.60;;
47844;SDS011;33605;48.822;8.796;2023-07-20T10:27:23;3.47;;;2.27;;
47844;SDS011;33605;48.822;8.796;2023-07-20T10:29:50;3.10;;;1.90;;
47844;SDS011;33605;48.822;8.796;2023-07-20T10:32:18;2.30;;;1.67;;
47844;SDS011;33605;48.822;8.796;2023-07-20T10:34:50;1.70;;;1.60;;
47844;SDS011;33605;48.822;8.796;2023-07-20T10:40:23;1.67;;;1.57;;
47844;SDS011;33605;48.822;8.796;2023-07-20T10:42:47;2.90;;;2.17;;
47844;SDS011;33605;48.822;8.796;2023-07-20T10:45:13;2.30;;;1.77;;
47844;SDS011;33605;48.822;8.796;2023-07-20T10:47:45;5.00;;;1.70;;
47844;SDS011;33605;48.822;8.796;2023-07-20T10:50:13;1.80;;;1.53;;
47844;SDS011;33605;48.822;8.796;2023-07-20T10:52:42;2.60;;;1.77;;
47844;SDS011;33605;48.822;8.796;2023-07-20T10:55:14;1.63;;;1.53;;
47844;SDS011;33605;48.822;8.796;2023-07-20T10:57:40;2.00;;;1.67;;
47844;SDS011;33605;48.822;8.796;2023-07-20T11:00:10;2.80;;;2.03;;
47844;SDS011;33605;48.822;8.796;2023-07-20T11:02:43;2.07;;;1.93;;
47844;SDS011;33605;48.822;8.796;2023-07-20T11:07:54;4.83;;;2.23;;
47844;SDS011;33605;48.822;8.796;2023-07-20T11:10:20;7.93;;;2.53;;
47844;SDS011;33605;48.822;8.796;2023-07-20T11:13:46;4.43;;;2.30;;
47844;SDS011;33605;48.822;8.796;2023-07-20T11:15:53;2.50;;;1.80;;
47844;SDS011;33605;48.822;8.796;2023-07-20T11:18:27;4.30;;;1.50;;
47844;SDS011;33605;48.822;8.796;2023-07-20T11:20:53;3.00;;;1.73;;
47844;SDS011;33605;48.822;8.796;2023-07-20T11:23:19;1.40;;;1.30;;
47844;SDS011;33605;48.822;8.796;2023-07-20T11:25:46;1.70;;;1.60;;
47844;SDS011;33605;48.822;8.796;2023-07-20T11:28:12;1.57;;;1.47;;
47844;SDS011;33605;48.822;8.796;2023-07-20T11:30:38;2.20;;;1.70;;
47844;SDS011;33605;48.822;8.796;2023-07-20T11:33:04;2.73;;;1.50;;
47844;SDS011;33605;48.822;8.796;2023-07-20T11:35:31;1.63;;;1.53;;
47844;SDS011;33605;48.822;8.796;2023-07-20T11:38:00;1.73;;;1.53;;
47844;SDS011;33605;48.822;8.796;2023-07-20T11:40:26;2.10;;;1.43;;
47844;SDS011;33605;48.822;8.796;2023-07-20T11:42:52;2.30;;;1.60;;
47844;SDS011;33605;48.822;8.796;2023-07-20T11:45:19;1.70;;;1.60;;
47844;SDS011;33605;48.822;8.796;2023-07-20T11:47:45;1.87;;;1.57;;
47844;SDS011;33605;48.822;8.796;2023-07-20T11:50:11;1.70;;;1.60;;
47844;SDS011;33605;48.822;8.796;2023-07-20T11:52:39;2.43;;;1.67;;
47844;SDS011;33605;48.822;8.796;2023-07-20T11:55:05;2.07;;;1.57;;
47844;SDS011;33605;48.822;8.796;2023-07-20T11:57:31;3.73;;;1.57;;
47844;SDS011;33605;48.822;8.796;2023-07-20T11:59:58;2.10;;;1.50;;
47844;SDS011;33605;48.822;8.796;2023-07-20T12:02:29;2.73;;;1.63;;
47844;SDS011;33605;48.822;8.796;2023-07-20T12:04:56;2.37;;;1.70;;
47844;SDS011;33605;48.822;8.796;2023-07-20T12:07:22;1.87;;;1.67;;
47844;SDS011;33605;48.822;8.796;2023-07-20T12:10:07;1.60;;;1.50;;
47844;SDS011;33605;48.822;8.796;2023-07-20T12:12:34;2.40;;;1.80;;
47844;SDS011;33605;48.822;8.796;2023-07-20T12:17:42;2.80;;;2.30;;
47844;SDS011;33605;48.822;8.796;2023-07-20T12:20:08;1.60;;;1.47;;
47844;SDS011;33605;48.822;8.796;2023-07-20T12:22:43;2.60;;;1.63;;
47844;SDS011;33605;48.822;8.796;2023-07-20T12:25:09;2.10;;;1.70;;
47844;SDS011;33605;48.822;8.796;2023-07-20T12:27:36;4.20;;;2.10;;
47844;SDS011;33605;48.822;8.796;2023-07-20T12:30:03;2.10;;;1.80;;
47844;SDS011;33605;48.822;8.796;2023-07-20T12:32:29;4.10;;;1.97;;
47844;SDS011;33605;48.822;8.796;2023-07-20T12:34:55;2.80;;;1.73;;
47844;SDS011;33605;48.822;8.796;2023-07-20T12:37:21;1.50;;;1.40;;
47844;SDS011;33605;48.822;8.796;2023-07-20T12:39:47;5.73;;;1.87;;
47844;SDS011;33605;48.822;8.796;2023-07-20T12:42:13;2.50;;;1.70;;
47844;SDS011;33605;48.822;8.796;2023-07-20T12:44:41;2.93;;;1.53;;
47844;SDS011;33605;48.822;8.796;2023-07-20T12:47:07;2.10;;;1.50;;
47844;SDS011;33605;48.822;8.796;2023-07-20T12:49:33;2.10;;;1.70;;
47844;SDS011;33605;48.822;8.796;2023-07-20T12:51:59;2.03;;;1.83;;
47844;SDS011;33605;48.822;8.796;2023-07-20T12:54:25;1.73;;;1.63;;
47844;SDS011;33605;48.822;8.796;2023-07-20T12:56:51;1.67;;;1.57;;
47844;SDS011;33605;48.822;8.796;2023-07-20T12:59:17;1.93;;;1.73;;
47844;SDS011;33605;48.822;8.796;2023-07-20T13:01:43;3.63;;;2.10;;
47844;SDS011;33605;48.822;8.796;2023-07-20T13:04:09;1.83;;;1.70;;
47844;SDS011;33605;48.822;8.796;2023-07-20T13:06:35;1.63;;;1.53;;
47844;SDS011;33605;48.822;8.796;2023-07-20T13:09:01;1.57;;;1.47;;
47844;SDS011;33605;48.822;8.796;2023-07-20T13:11:28;1.97;;;1.63;;
47844;SDS011;33605;48.822;8.796;2023-07-20T13:13:54;2.10;;;1.63;;
47844;SDS011;33605;48.822;8.796;2023-07-20T13:16:20;2.03;;;1.50;;
47844;SDS011;33605;48.822;8.796;2023-07-20T13:18:46;2.90;;;1.47;;
47844;SDS011;33605;48.822;8.796;2023-07-20T13:21:12;1.63;;;1.50;;
47844;SDS011;33605;48.822;8.796;2023-07-20T13:23:38;1.43;;;1.33;;
47844;SDS011;33605;48.822;8.796;2023-07-20T13:26:04;1.43;;;1.33;;
47844;SDS011;33605;48.822;8.796;2023-07-20T13:28:30;2.00;;;1.90;;
47844;SDS011;33605;48.822;8.796;2023-07-20T13:30:56;2.57;;;1.90;;
47844;SDS011;33605;48.822;8.796;2023-07-20T13:33:22;1.97;;;1.60;;
47844;SDS011;33605;48.822;8.796;2023-07-20T13:35:48;1.73;;;1.60;;
47844;SDS011;33605;48.822;8.796;2023-07-20T13:38:14;1.83;;;1.67;;
47844;SDS011;33605;48.822;8.796;2023-07-20T13:40:40;1.80;;;1.70;;
47844;SDS011;33605;48.822;8.796;2023-07-20T13:43:07;2.90;;;1.87;;
47844;SDS011;33605;48.822;8.796;2023-07-20T13:45:33;2.37;;;1.50;;
47844;SDS011;33605;48.822;8.796;2023-07-20T13:47:59;1.70;;;1.60;;
47844;SDS011;33605;48.822;8.796;2023-07-20T13:50:25;1.90;;;1.53;;
47844;SDS011;33605;48.822;8.796;2023-07-20T13:52:51;1.83;;;1.70;;
47844;SDS011;33605;48.822;8.796;2023-07-20T13:55:17;3.17;;;1.50;;
47844;SDS011;33605;48.822;8.796;2023-07-20T13:57:43;1.90;;;1.50;;
47844;SDS011;33605;48.822;8.796;2023-07-20T14:00:10;2.10;;;1.80;;
47844;SDS011;33605;48.822;8.796;2023-07-20T14:02:36;2.00;;;1.73;;
47844;SDS011;33605;48.822;8.796;2023-07-20T14:05:02;1.50;;;1.40;;
47844;SDS011;33605;48.822;8.796;2023-07-20T14:07:28;1.83;;;1.40;;
47844;SDS011;33605;48.822;8.796;2023-07-20T14:09:54;5.43;;;1.83;;
47844;SDS011;33605;48.822;8.796;2023-07-20T14:12:20;2.90;;;1.60;;
47844;SDS011;33605;48.822;8.796;2023-07-20T14:14:46;2.83;;;1.80;;
47844;SDS011;33605;48.822;8.796;2023-07-20T14:17:12;3.33;;;2.00;;
47844;SDS011;33605;48.822;8.796;2023-07-20T14:19:38;1.90;;;1.73;;
47844;SDS011;33605;48.822;8.796;2023-07-20T14:22:04;1.97;;;1.80;;
47844;SDS011;33605;48.822;8.796;2023-07-20T14:24:30;1.80;;;1.70;;
47844;SDS011;33605;48.822;8.796;2023-07-20T14:26:56;1.80;;;1.70;;
47844;SDS011;33605;48.822;8.796;2023-07-20T14:29:22;1.87;;;1.77;;
47844;SDS011;33605;48.822;8.796;2023-07-20T14:31:48;2.80;;;1.90;;
47844;SDS011;33605;48.822;8.796;2023-07-20T14:34:16;4.37;;;2.13;;
47844;SDS011;33605;48.822;8.796;2023-07-20T14:36:43;2.57;;;1.90;;
47844;SDS011;33605;48.822;8.796;2023-07-20T14:39:09;2.00;;;1.80;;
47844;SDS011;33605;48.822;8.796;2023-07-20T14:41:35;1.53;;;1.43;;
47844;SDS011;33605;48.822;8.796;2023-07-20T14:44:02;1.73;;;1.60;;
47844;SDS011;33605;48.822;8.796;2023-07-20T14:46:28;4.00;;;1.87;;
47844;SDS011;33605;48.822;8.796;2023-07-20T14:48:54;3.17;;;2.03;;
47844;SDS011;33605;48.822;8.796;2023-07-20T14:51:20;1.83;;;1.63;;
47844;SDS011;33605;48.822;8.796;2023-07-20T14:53:46;1.90;;;1.80;;
47844;SDS011;33605;48.822;8.796;2023-07-20T14:56:12;2.63;;;1.67;;
47844;SDS011;33605;48.822;8.796;2023-07-20T14:58:38;2.63;;;1.80;;
47844;SDS011;33605;48.822;8.796;2023-07-20T15:01:04;3.00;;;2.10;;
47844;SDS011;33605;48.822;8.796;2023-07-20T15:03:30;2.03;;;1.80;;
47844;SDS011;33605;48.822;8.796;2023-07-20T15:05:56;3.30;;;1.80;;